createdAt,value
2022-11-21T04:22:10.488Z,6.30
2022-11-21T04:25:20.119Z,6.32
2022-11-21T04:28:29.741Z,6.28
2022-11-21T04:31:39.353Z,6.25
2022-11-21T04:34:49.034Z,6.27
2022-11-21T04:37:59.909Z,6.28
2022-11-21T04:41:09.568Z,6.32
2022-11-21T04:44:19.217Z,6.30
2022-11-21T04:47:28.906Z,6.36
2022-11-21T04:50:38.579Z,6.28
2022-11-21T04:53:49.620Z,6.20
2022-11-21T04:56:59.277Z,6.19
2022-11-21T05:00:10.046Z,6.19
2022-11-21T05:03:19.646Z,6.21
2022-11-21T05:06:29.245Z,6.22
2022-11-21T05:09:40.255Z,6.23
2022-11-21T05:13:07.852Z,6.21
2022-11-21T05:16:17.449Z,6.22
2022-11-21T05:19:27.047Z,6.22
2022-11-21T05:22:36.755Z,6.24
2022-11-21T05:25:47.722Z,6.21
2022-11-21T05:28:57.338Z,6.22
2022-11-21T05:32:07.074Z,6.26
2022-11-21T05:35:16.727Z,6.18
2022-11-21T05:38:26.396Z,6.14
2022-11-21T05:41:37.392Z,6.20
2022-11-21T05:44:47.052Z,6.21
2022-11-21T05:47:56.794Z,6.25
2022-11-21T05:51:06.523Z,6.28
2022-11-21T05:54:16.779Z,6.20
2022-11-21T05:57:27.790Z,6.18
2022-11-21T06:00:37.860Z,6.14
2022-11-21T07:43:11.732Z,5.82
2022-11-21T07:46:21.397Z,5.89
2022-11-21T07:49:31.270Z,5.87
2022-11-21T07:52:40.989Z,5.98
2022-11-21T07:55:50.589Z,6.01
2022-11-21T07:59:01.589Z,6.03
2022-11-21T08:02:18.072Z,6.11
2022-11-21T08:05:27.732Z,6.08
2022-11-21T08:08:37.444Z,6.16
2022-11-21T08:11:47.042Z,6.17
2022-11-21T08:14:59.034Z,6.19
2022-11-21T08:18:09.991Z,6.13
2022-11-21T08:21:20.168Z,6.28
2022-11-21T08:24:29.891Z,6.20
2022-11-21T08:31:18.965Z,6.23
2022-11-21T08:34:31.526Z,6.14
2022-11-21T08:37:41.260Z,6.22
2022-11-21T08:41:17.285Z,6.27
2022-11-21T08:44:29.067Z,6.36
2022-11-21T08:47:40.269Z,6.51
2022-11-21T08:50:49.982Z,6.67
2022-11-21T08:54:00.080Z,6.85
2022-11-21T08:57:09.753Z,6.86
2022-11-21T09:00:20.048Z,6.97
2022-11-21T09:03:32.791Z,7.09
2022-11-21T09:06:42.434Z,7.19
2022-11-21T09:09:52.176Z,7.24
2022-11-21T09:13:02.420Z,7.20
2022-11-21T09:16:23.639Z,7.22
2022-11-21T09:19:34.573Z,7.14
2022-11-21T09:22:44.230Z,7.36
2022-11-21T09:25:54.282Z,7.62
2022-11-21T09:29:04.451Z,7.62
2022-11-21T09:32:14.236Z,7.64
2022-11-21T09:35:25.266Z,7.42
2022-11-21T09:38:34.904Z,7.26
2022-11-21T09:41:56.825Z,7.18
2022-11-21T09:45:11.803Z,7.59
2022-11-21T09:48:28.870Z,7.98
2022-11-21T09:51:42.658Z,8.16
2022-11-21T09:54:59.182Z,8.34
2022-11-21T09:58:17.084Z,8.50
2022-11-21T10:01:28.555Z,8.67
2022-11-21T10:04:38.259Z,8.90
2022-11-21T10:07:51.710Z,9.22
2022-11-21T10:11:19.192Z,8.97
2022-11-21T10:14:43.959Z,9.13
2022-11-21T10:18:07.004Z,9.20
2022-11-21T10:21:33.825Z,9.17
2022-11-21T10:24:55.367Z,9.32
2022-11-21T10:28:11.694Z,9.55
2022-11-21T10:31:22.921Z,9.57
2022-11-21T10:34:38.713Z,9.61
2022-11-21T10:37:53.262Z,9.65
2022-11-21T10:41:08.772Z,10.08
2022-11-21T10:44:37.632Z,10.34
2022-11-21T10:47:49.332Z,10.32
2022-11-21T10:51:15.167Z,10.10
2022-11-21T10:54:33.834Z,10.00
2022-11-21T10:57:48.202Z,9.81
2022-11-21T11:00:59.032Z,9.86
2022-11-21T11:04:43.848Z,9.70
2022-11-21T11:08:02.389Z,9.85
2022-11-21T11:11:16.193Z,9.85
2022-11-21T11:14:33.291Z,10.10
2022-11-21T11:17:43.055Z,10.45
2022-11-21T11:20:53.398Z,10.74
2022-11-21T11:24:22.854Z,10.85
2022-11-21T11:27:32.499Z,10.85
2022-11-21T11:30:44.320Z,10.76
2022-11-21T11:33:56.623Z,10.90
2022-11-21T11:37:14.490Z,11.00
2022-11-21T11:40:29.850Z,11.14
2022-11-21T11:44:01.352Z,11.30
2022-11-21T11:47:31.792Z,11.49
2022-11-21T11:50:47.199Z,11.73
2022-11-21T11:54:03.522Z,11.40
2022-11-21T11:57:14.838Z,11.26
2022-11-21T12:00:31.590Z,11.30
2022-11-21T12:03:56.583Z,11.12
2022-11-21T12:08:33.234Z,10.90
2022-11-21T12:11:06.169Z,10.58
2022-11-21T12:14:37.819Z,10.49
2022-11-21T12:17:55.882Z,10.43
2022-11-21T12:21:13.479Z,10.18
2022-11-21T12:24:23.425Z,10.24
2022-11-21T12:27:33.560Z,10.20
2022-11-21T12:30:51.997Z,10.22
2022-11-21T12:34:10.640Z,10.19
2022-11-21T12:37:34.017Z,10.22
2022-11-21T12:40:51.385Z,10.30
2022-11-21T12:44:11.464Z,10.49
2022-11-21T12:48:00.005Z,10.37
2022-11-21T12:51:41.772Z,10.24
2022-11-21T12:55:15.157Z,9.91
2022-11-21T12:58:33.109Z,9.80
2022-11-21T13:01:52.798Z,9.86
2022-11-21T13:05:05.674Z,9.96
2022-11-21T13:08:24.200Z,10.02
2022-11-21T13:11:57.256Z,10.10
2022-11-21T13:15:19.448Z,10.11
2022-11-21T13:18:34.533Z,10.13
2022-11-21T13:21:47.729Z,10.22
2022-11-21T13:24:59.444Z,10.21
2022-11-21T13:28:34.395Z,10.31
2022-11-21T13:31:44.559Z,10.30
2022-11-21T13:34:54.374Z,10.20
2022-11-21T13:38:05.736Z,10.07
2022-11-21T13:42:05.972Z,10.18
2022-11-21T13:45:40.368Z,10.05
2022-11-21T13:49:01.838Z,9.84
2022-11-21T13:52:26.918Z,9.69
2022-11-21T13:55:49.725Z,9.74
2022-11-21T13:59:12.208Z,9.66
2022-11-21T14:02:44.909Z,9.41
2022-11-21T14:06:19.747Z,9.01
2022-11-21T14:09:36.290Z,8.89
2022-11-21T14:12:50.628Z,8.90
2022-11-21T14:16:16.173Z,8.78
2022-11-21T14:19:29.949Z,8.76
2022-11-21T14:22:45.630Z,8.78
2022-11-21T14:25:57.996Z,8.70
2022-11-21T14:29:18.882Z,8.69
2022-11-21T14:32:28.995Z,8.58
2022-11-21T14:35:41.043Z,8.60
2022-11-21T14:39:13.753Z,8.66
2022-11-21T14:42:22.874Z,8.67
2022-11-21T14:45:32.736Z,8.55
2022-11-21T14:48:42.604Z,8.55
2022-11-21T14:51:59.502Z,8.35
2022-11-21T14:55:32.468Z,8.38
2022-11-21T14:58:42.307Z,8.29
2022-11-21T15:01:58.760Z,8.21
2022-11-21T15:05:24.913Z,8.23
2022-11-21T15:09:29.041Z,8.08
2022-11-21T15:12:20.595Z,8.01
2022-11-21T15:15:34.370Z,7.95
2022-11-21T15:18:44.255Z,7.87
2022-11-21T15:21:57.103Z,7.74
2022-11-21T15:25:15.575Z,7.64
2022-11-21T15:28:25.505Z,7.54
2022-11-21T15:31:35.196Z,7.42
2022-11-21T15:34:45.029Z,7.32
2022-11-21T15:37:54.718Z,7.22
2022-11-21T15:41:25.565Z,7.11
2022-11-21T15:44:35.259Z,7.03
2022-11-21T15:47:44.880Z,6.95
2022-11-21T15:50:58.783Z,6.87
2022-11-21T15:54:12.138Z,6.79
2022-11-21T15:57:23.367Z,6.69
2022-11-21T16:00:32.992Z,6.62
2022-11-21T16:03:43.347Z,6.52
2022-11-21T16:06:52.976Z,6.43
2022-11-21T16:10:02.600Z,6.33
2022-11-21T16:13:13.856Z,6.23
2022-11-21T16:16:25.753Z,6.14
2022-11-21T16:19:35.594Z,6.09
2022-11-21T16:22:47.658Z,6.03
2022-11-21T16:25:57.707Z,5.99
2022-11-21T16:29:11.507Z,5.94
2022-11-21T16:32:21.147Z,5.91
2022-11-21T16:35:31.950Z,5.93
2022-11-21T16:38:44.458Z,5.88
2022-11-21T16:41:54.097Z,5.83
2022-11-21T16:45:05.529Z,5.73
2022-11-21T16:48:15.378Z,5.67
2022-11-21T16:51:25.093Z,5.63
2022-11-21T16:54:34.813Z,5.63
2022-11-21T16:57:44.422Z,5.64
2022-11-21T17:00:59.203Z,5.70
2022-11-21T17:04:15.671Z,5.72
2022-11-21T17:07:27.348Z,5.75
2022-11-21T17:10:39.028Z,5.75
2022-11-21T17:13:51.971Z,5.66
2022-11-21T17:17:04.243Z,5.64
2022-11-21T17:20:15.387Z,5.62
2022-11-21T17:23:26.940Z,5.61
2022-11-21T17:26:39.315Z,5.56
2022-11-21T17:29:50.820Z,5.56
2022-11-21T17:33:03.803Z,5.61
2022-11-21T17:36:16.587Z,5.55
2022-11-21T17:39:30.112Z,5.43
2022-11-21T17:42:44.081Z,5.48
2022-11-21T17:46:02.696Z,5.52
2022-11-21T17:49:18.173Z,5.64
2022-11-21T17:52:29.356Z,5.70
2022-11-21T17:55:40.786Z,5.76
2022-11-21T17:58:53.013Z,5.81
2022-11-21T18:02:04.521Z,5.85
2022-11-21T18:05:17.199Z,5.94
2022-11-21T18:08:28.367Z,5.97
2022-11-21T18:11:40.834Z,6.01
2022-11-21T18:14:52.676Z,6.01
2022-11-21T18:18:04.344Z,5.99
2022-11-21T18:21:19.144Z,6.01
2022-11-21T18:24:30.292Z,6.09
2022-11-21T18:27:42.046Z,6.15
2022-11-21T18:30:53.402Z,6.08
2022-11-21T18:34:06.156Z,6.06
2022-11-21T18:37:18.846Z,6.13
2022-11-21T18:40:30.142Z,6.24
2022-11-21T18:43:42.536Z,6.28
2022-11-21T18:46:53.816Z,6.34
2022-11-21T18:50:05.223Z,6.35
2022-11-21T18:53:18.139Z,6.30
2022-11-21T18:56:29.762Z,6.31
2022-11-21T18:59:40.929Z,6.35
2022-11-21T19:02:52.569Z,6.38
2022-11-21T19:06:03.935Z,6.35
2022-11-21T19:09:16.650Z,6.35
2022-11-21T19:12:27.819Z,6.33
2022-11-21T19:15:39.678Z,6.31
2022-11-21T19:19:18.756Z,6.30
2022-11-21T19:22:26.884Z,6.31
2022-11-21T19:25:39.577Z,6.35
2022-11-21T19:28:50.931Z,6.37
2022-11-21T19:32:02.082Z,6.36
2022-11-21T19:35:13.381Z,6.37
2022-11-21T19:38:24.980Z,6.41
2022-11-21T19:41:37.764Z,6.45
2022-11-21T19:44:48.866Z,6.44
2022-11-21T19:48:01.189Z,6.48
2022-11-21T19:51:12.623Z,6.50
2022-11-21T19:54:24.382Z,6.45
2022-11-21T19:57:39.654Z,6.48
2022-11-21T20:00:50.973Z,6.45
2022-11-21T20:04:04.707Z,6.47
2022-11-21T20:07:15.955Z,6.51
2022-11-21T20:10:27.693Z,6.52
2022-11-21T20:13:41.281Z,6.54
2022-11-21T20:16:54.224Z,6.55
2022-11-21T20:20:05.874Z,6.53
2022-11-21T20:23:17.093Z,6.50
2022-11-21T20:26:28.409Z,6.45
2022-11-21T20:29:41.157Z,6.44
2022-11-21T20:32:52.556Z,6.45
2022-11-21T20:36:06.428Z,6.43
2022-11-21T20:39:19.096Z,6.40
2022-11-21T20:42:30.340Z,6.39
2022-11-21T20:49:14.543Z,6.35
